sensor_id;sensor_type;location;lat;lon;timestamp;P1;durP1;ratioP1;P2;durP2;ratioP2
63536;SDS011;49686;51.880;5.632;2023-04-16T00:02:24;9.73;;;3.50;;
63536;SDS011;49686;51.880;5.632;2023-04-16T00:04:51;6.32;;;2.80;;
63536;SDS011;49686;51.880;5.632;2023-04-16T00:07:18;8.90;;;3.28;;
63536;SDS011;49686;51.880;5.632;2023-04-16T00:09:45;5.57;;;2.60;;
63536;SDS011;49686;51.880;5.632;2023-04-16T00:12:13;10.18;;;3.40;;
63536;SDS011;49686;51.880;5.632;2023-04-16T00:14:42;6.88;;;3.17;;
63536;SDS011;49686;51.880;5.632;2023-04-16T00:17:09;11.55;;;3.33;;
63536;SDS011;49686;51.880;5.632;2023-04-16T00:19:42;9.38;;;3.30;;
63536;SDS011;49686;51.880;5.632;2023-04-16T00:22:09;9.40;;;3.28;;
63536;SDS011;49686;51.880;5.632;2023-04-16T00:24:36;7.47;;;3.30;;
63536;SDS011;49686;51.880;5.632;2023-04-16T00:27:03;7.65;;;2.97;;
63536;SDS011;49686;51.880;5.632;2023-04-16T00:29:31;8.15;;;3.97;;
63536;SDS011;49686;51.880;5.632;2023-04-16T00:31:58;8.45;;;2.80;;
63536;SDS011;49686;51.880;5.632;2023-04-16T00:34:25;10.05;;;4.35;;
63536;SDS011;49686;51.880;5.632;2023-04-16T00:36:52;7.53;;;2.97;;
63536;SDS011;49686;51.880;5.632;2023-04-16T00:39:19;11.85;;;3.53;;
63536;SDS011;49686;51.880;5.632;2023-04-16T00:41:46;7.10;;;3.28;;
63536;SDS011;49686;51.880;5.632;2023-04-16T00:44:13;8.10;;;3.38;;
63536;SDS011;49686;51.880;5.632;2023-04-16T00:46:41;6.07;;;2.85;;
63536;SDS011;49686;51.880;5.632;2023-04-16T00:49:08;11.00;;;3.40;;
63536;SDS011;49686;51.880;5.632;2023-04-16T00:51:37;4.53;;;2.88;;
63536;SDS011;49686;51.880;5.632;2023-04-16T00:54:04;9.35;;;3.50;;
63536;SDS011;49686;51.880;5.632;2023-04-16T00:56:32;7.90;;;3.42;;
63536;SDS011;49686;51.880;5.632;2023-04-16T00:59:00;12.82;;;3.90;;
63536;SDS011;49686;51.880;5.632;2023-04-16T01:01:26;10.63;;;3.92;;
63536;SDS011;49686;51.880;5.632;2023-04-16T01:03:55;9.75;;;3.60;;
63536;SDS011;49686;51.880;5.632;2023-04-16T01:06:23;11.60;;;5.28;;
63536;SDS011;49686;51.880;5.632;2023-04-16T01:08:50;9.68;;;3.80;;
63536;SDS011;49686;51.880;5.632;2023-04-16T01:11:16;13.95;;;5.38;;
63536;SDS011;49686;51.880;5.632;2023-04-16T01:13:43;12.25;;;5.40;;
63536;SDS011;49686;51.880;5.632;2023-04-16T01:16:10;13.80;;;4.40;;
63536;SDS011;49686;51.880;5.632;2023-04-16T01:18:37;12.70;;;3.95;;
63536;SDS011;49686;51.880;5.632;2023-04-16T01:21:08;13.15;;;4.75;;
63536;SDS011;49686;51.880;5.632;2023-04-16T01:23:35;11.97;;;4.53;;
63536;SDS011;49686;51.880;5.632;2023-04-16T01:26:02;16.33;;;5.00;;
63536;SDS011;49686;51.880;5.632;2023-04-16T01:28:29;13.05;;;5.22;;
63536;SDS011;49686;51.880;5.632;2023-04-16T01:30:55;15.98;;;5.65;;
63536;SDS011;49686;51.880;5.632;2023-04-16T01:33:22;9.43;;;4.10;;
63536;SDS011;49686;51.880;5.632;2023-04-16T01:35:49;12.52;;;4.65;;
63536;SDS011;49686;51.880;5.632;2023-04-16T01:38:17;10.32;;;4.25;;
63536;SDS011;49686;51.880;5.632;2023-04-16T01:40:46;15.60;;;6.10;;
63536;SDS011;49686;51.880;5.632;2023-04-16T01:43:14;14.45;;;6.10;;
63536;SDS011;49686;51.880;5.632;2023-04-16T01:45:41;18.38;;;6.95;;
63536;SDS011;49686;51.880;5.632;2023-04-16T01:48:10;14.75;;;5.72;;
63536;SDS011;49686;51.880;5.632;2023-04-16T01:50:37;18.58;;;6.75;;
63536;SDS011;49686;51.880;5.632;2023-04-16T01:53:04;17.35;;;6.70;;
63536;SDS011;49686;51.880;5.632;2023-04-16T01:55:33;16.60;;;6.38;;
63536;SDS011;49686;51.880;5.632;2023-04-16T01:57:59;12.68;;;5.88;;
63536;SDS011;49686;51.880;5.632;2023-04-16T02:00:26;15.85;;;6.20;;
63536;SDS011;49686;51.880;5.632;2023-04-16T02:02:53;19.88;;;7.47;;
63536;SDS011;49686;51.880;5.632;2023-04-16T02:05:20;21.33;;;7.43;;
63536;SDS011;49686;51.880;5.632;2023-04-16T02:07:47;17.73;;;6.85;;
63536;SDS011;49686;51.880;5.632;2023-04-16T02:10:14;28.27;;;8.20;;
63536;SDS011;49686;51.880;5.632;2023-04-16T02:12:42;24.58;;;7.97;;
63536;SDS011;49686;51.880;5.632;2023-04-16T02:15:09;22.57;;;8.17;;
63536;SDS011;49686;51.880;5.632;2023-04-16T02:17:36;18.67;;;6.85;;
63536;SDS011;49686;51.880;5.632;2023-04-16T02:20:03;21.95;;;7.97;;
63536;SDS011;49686;51.880;5.632;2023-04-16T02:22:33;26.38;;;8.38;;
63536;SDS011;49686;51.880;5.632;2023-04-16T02:25:00;19.90;;;7.35;;
63536;SDS011;49686;51.880;5.632;2023-04-16T02:27:27;26.77;;;8.55;;
63536;SDS011;49686;51.880;5.632;2023-04-16T02:29:56;19.02;;;7.68;;
63536;SDS011;49686;51.880;5.632;2023-04-16T02:32:25;27.58;;;9.50;;
63536;SDS011;49686;51.880;5.632;2023-04-16T02:34:52;19.15;;;7.72;;
63536;SDS011;49686;51.880;5.632;2023-04-16T02:37:18;21.42;;;7.82;;
63536;SDS011;49686;51.880;5.632;2023-04-16T02:39:45;18.90;;;7.60;;
63536;SDS011;49686;51.880;5.632;2023-04-16T02:42:12;22.55;;;7.78;;
63536;SDS011;49686;51.880;5.632;2023-04-16T02:44:39;19.98;;;7.55;;
63536;SDS011;49686;51.880;5.632;2023-04-16T02:47:08;26.73;;;8.98;;
63536;SDS011;49686;51.880;5.632;2023-04-16T02:49:34;27.33;;;8.33;;
63536;SDS011;49686;51.880;5.632;2023-04-16T02:52:01;25.65;;;9.00;;
63536;SDS011;49686;51.880;5.632;2023-04-16T02:54:28;25.58;;;9.65;;
63536;SDS011;49686;51.880;5.632;2023-04-16T02:56:55;23.80;;;8.90;;
63536;SDS011;49686;51.880;5.632;2023-04-16T02:59:21;20.85;;;8.32;;
63536;SDS011;49686;51.880;5.632;2023-04-16T03:01:48;21.33;;;8.50;;
63536;SDS011;49686;51.880;5.632;2023-04-16T03:04:16;23.05;;;9.07;;
63536;SDS011;49686;51.880;5.632;2023-04-16T03:06:43;22.43;;;8.27;;
63536;SDS011;49686;51.880;5.632;2023-04-16T03:09:10;24.15;;;8.73;;
63536;SDS011;49686;51.880;5.632;2023-04-16T03:11:37;19.10;;;7.93;;
63536;SDS011;49686;51.880;5.632;2023-04-16T03:14:04;22.02;;;8.23;;
63536;SDS011;49686;51.880;5.632;2023-04-16T03:16:31;23.38;;;8.80;;
63536;SDS011;49686;51.880;5.632;2023-04-16T03:18:57;23.33;;;8.55;;
63536;SDS011;49686;51.880;5.632;2023-04-16T03:21:25;27.27;;;9.20;;
63536;SDS011;49686;51.880;5.632;2023-04-16T03:23:52;24.60;;;8.90;;
63536;SDS011;49686;51.880;5.632;2023-04-16T03:26:19;19.90;;;7.90;;
63536;SDS011;49686;51.880;5.632;2023-04-16T03:28:46;25.90;;;8.35;;
63536;SDS011;49686;51.880;5.632;2023-04-16T03:31:12;26.17;;;9.20;;
63536;SDS011;49686;51.880;5.632;2023-04-16T03:33:39;24.75;;;7.38;;
63536;SDS011;49686;51.880;5.632;2023-04-16T03:36:06;25.17;;;9.43;;
63536;SDS011;49686;51.880;5.632;2023-04-16T03:38:35;27.88;;;9.10;;
63536;SDS011;49686;51.880;5.632;2023-04-16T03:41:02;19.20;;;7.80;;
63536;SDS011;49686;51.880;5.632;2023-04-16T03:43:29;31.67;;;11.07;;
63536;SDS011;49686;51.880;5.632;2023-04-16T03:45:55;21.90;;;9.18;;
63536;SDS011;49686;51.880;5.632;2023-04-16T03:48:22;21.75;;;8.18;;
63536;SDS011;49686;51.880;5.632;2023-04-16T03:50:49;24.88;;;10.32;;
63536;SDS011;49686;51.880;5.632;2023-04-16T03:53:16;24.83;;;9.73;;
63536;SDS011;49686;51.880;5.632;2023-04-16T03:55:44;29.92;;;12.18;;
63536;SDS011;49686;51.880;5.632;2023-04-16T03:58:15;29.60;;;11.80;;
63536;SDS011;49686;51.880;5.632;2023-04-16T04:00:42;28.40;;;12.13;;
63536;SDS011;49686;51.880;5.632;2023-04-16T04:03:10;29.63;;;12.17;;
63536;SDS011;49686;51.880;5.632;2023-04-16T04:05:40;25.55;;;11.45;;
63536;SDS011;49686;51.880;5.632;2023-04-16T04:08:09;26.67;;;10.45;;
63536;SDS011;49686;51.880;5.632;2023-04-16T04:10:37;26.63;;;10.30;;
63536;SDS011;49686;51.880;5.632;2023-04-16T04:13:05;22.90;;;9.57;;
63536;SDS011;49686;51.880;5.632;2023-04-16T04:15:33;24.88;;;11.45;;
63536;SDS011;49686;51.880;5.632;2023-04-16T04:17:59;20.23;;;10.20;;
63536;SDS011;49686;51.880;5.632;2023-04-16T04:20:26;29.95;;;12.55;;
63536;SDS011;49686;51.880;5.632;2023-04-16T04:22:53;31.58;;;13.02;;
63536;SDS011;49686;51.880;5.632;2023-04-16T04:25:20;29.52;;;12.90;;
63536;SDS011;49686;51.880;5.632;2023-04-16T04:27:47;28.13;;;11.43;;
63536;SDS011;49686;51.880;5.632;2023-04-16T04:30:15;35.33;;;12.48;;
63536;SDS011;49686;51.880;5.632;2023-04-16T04:32:42;32.80;;;13.50;;
63536;SDS011;49686;51.880;5.632;2023-04-16T04:35:09;27.20;;;11.57;;
63536;SDS011;49686;51.880;5.632;2023-04-16T04:37:36;27.73;;;11.38;;
63536;SDS011;49686;51.880;5.632;2023-04-16T04:40:03;28.20;;;12.50;;
63536;SDS011;49686;51.880;5.632;2023-04-16T04:42:30;30.27;;;12.25;;
63536;SDS011;49686;51.880;5.632;2023-04-16T04:44:57;31.67;;;11.63;;
63536;SDS011;49686;51.880;5.632;2023-04-16T04:47:25;28.60;;;11.20;;
63536;SDS011;49686;51.880;5.632;2023-04-16T04:49:52;22.08;;;9.95;;
63536;SDS011;49686;51.880;5.632;2023-04-16T04:52:18;24.25;;;9.90;;
63536;SDS011;49686;51.880;5.632;2023-04-16T04:54:45;30.77;;;11.00;;
63536;SDS011;49686;51.880;5.632;2023-04-16T04:57:12;30.77;;;11.32;;
63536;SDS011;49686;51.880;5.632;2023-04-16T04:59:39;20.85;;;9.05;;
63536;SDS011;49686;51.880;5.632;2023-04-16T05:02:05;26.65;;;9.82;;
63536;SDS011;49686;51.880;5.632;2023-04-16T05:04:34;24.17;;;10.68;;
63536;SDS011;49686;51.880;5.632;2023-04-16T05:07:01;30.60;;;11.02;;
63536;SDS011;49686;51.880;5.632;2023-04-16T05:09:27;23.48;;;9.25;;
63536;SDS011;49686;51.880;5.632;2023-04-16T05:11:54;24.27;;;10.10;;
63536;SDS011;49686;51.880;5.632;2023-04-16T05:14:21;22.35;;;9.55;;
63536;SDS011;49686;51.880;5.632;2023-04-16T05:16:48;17.00;;;7.45;;
63536;SDS011;49686;51.880;5.632;2023-04-16T05:19:15;24.23;;;10.48;;
63536;SDS011;49686;51.880;5.632;2023-04-16T05:21:43;27.85;;;11.52;;
63536;SDS011;49686;51.880;5.632;2023-04-16T05:24:10;22.40;;;9.98;;
63536;SDS011;49686;51.880;5.632;2023-04-16T05:26:40;25.45;;;10.63;;
63536;SDS011;49686;51.880;5.632;2023-04-16T05:29:06;32.35;;;11.48;;
63536;SDS011;49686;51.880;5.632;2023-04-16T05:31:34;25.45;;;10.57;;
63536;SDS011;49686;51.880;5.632;2023-04-16T05:34:03;25.08;;;11.40;;
63536;SDS011;49686;51.880;5.632;2023-04-16T05:36:32;28.00;;;11.80;;
63536;SDS011;49686;51.880;5.632;2023-04-16T05:39:00;25.30;;;10.52;;
63536;SDS011;49686;51.880;5.632;2023-04-16T05:41:27;22.73;;;10.90;;
63536;SDS011;49686;51.880;5.632;2023-04-16T05:43:53;32.38;;;12.48;;
63536;SDS011;49686;51.880;5.632;2023-04-16T05:46:21;29.85;;;10.98;;
63536;SDS011;49686;51.880;5.632;2023-04-16T05:48:50;25.60;;;11.45;;
63536;SDS011;49686;51.880;5.632;2023-04-16T05:51:17;27.75;;;11.60;;
63536;SDS011;49686;51.880;5.632;2023-04-16T05:53:44;25.40;;;11.95;;
63536;SDS011;49686;51.880;5.632;2023-04-16T05:56:15;27.50;;;12.13;;
63536;SDS011;49686;51.880;5.632;2023-04-16T05:58:42;21.17;;;10.45;;
63536;SDS011;49686;51.880;5.632;2023-04-16T06:01:09;25.08;;;11.90;;
63536;SDS011;49686;51.880;5.632;2023-04-16T06:03:36;31.95;;;13.18;;
63536;SDS011;49686;51.880;5.632;2023-04-16T06:06:03;27.80;;;12.05;;
63536;SDS011;49686;51.880;5.632;2023-04-16T06:08:30;29.83;;;12.20;;
63536;SDS011;49686;51.880;5.632;2023-04-16T06:10:57;32.72;;;13.38;;
63536;SDS011;49686;51.880;5.632;2023-04-16T06:13:25;23.55;;;10.75;;
63536;SDS011;49686;51.880;5.632;2023-04-16T06:15:54;29.40;;;12.13;;
63536;SDS011;49686;51.880;5.632;2023-04-16T06:18:21;24.17;;;11.50;;
63536;SDS011;49686;51.880;5.632;2023-04-16T06:20:50;31.88;;;12.38;;
63536;SDS011;49686;51.880;5.632;2023-04-16T06:23:20;29.58;;;12.55;;
63536;SDS011;49686;51.880;5.632;2023-04-16T06:25:47;27.02;;;11.55;;
63536;SDS011;49686;51.880;5.632;2023-04-16T06:28:17;25.52;;;11.07;;
63536;SDS011;49686;51.880;5.632;2023-04-16T06:30:45;24.20;;;10.23;;
63536;SDS011;49686;51.880;5.632;2023-04-16T06:33:12;28.75;;;12.43;;
63536;SDS011;49686;51.880;5.632;2023-04-16T06:35:39;27.08;;;11.15;;
63536;SDS011;49686;51.880;5.632;2023-04-16T06:38:05;26.25;;;11.45;;
63536;SDS011;49686;51.880;5.632;2023-04-16T06:40:35;24.75;;;11.70;;
63536;SDS011;49686;51.880;5.632;2023-04-16T06:43:04;28.42;;;11.77;;
63536;SDS011;49686;51.880;5.632;2023-04-16T06:45:31;24.35;;;10.60;;
63536;SDS011;49686;51.880;5.632;2023-04-16T06:47:59;36.42;;;13.20;;
63536;SDS011;49686;51.880;5.632;2023-04-16T06:50:26;28.45;;;11.95;;
63536;SDS011;49686;51.880;5.632;2023-04-16T06:52:53;27.25;;;12.02;;
63536;SDS011;49686;51.880;5.632;2023-04-16T06:55:20;24.25;;;11.70;;
63536;SDS011;49686;51.880;5.632;2023-04-16T06:57:47;19.85;;;10.80;;
63536;SDS011;49686;51.880;5.632;2023-04-16T07:00:13;23.38;;;10.95;;
63536;SDS011;49686;51.880;5.632;2023-04-16T07:02:40;25.35;;;12.20;;
63536;SDS011;49686;51.880;5.632;2023-04-16T07:05:10;22.85;;;11.85;;
63536;SDS011;49686;51.880;5.632;2023-04-16T07:07:37;25.92;;;12.68;;
63536;SDS011;49686;51.880;5.632;2023-04-16T07:10:07;26.00;;;12.18;;
63536;SDS011;49686;51.880;5.632;2023-04-16T07:12:35;26.40;;;13.10;;
63536;SDS011;49686;51.880;5.632;2023-04-16T07:15:02;28.92;;;11.43;;
63536;SDS011;49686;51.880;5.632;2023-04-16T07:17:30;26.33;;;11.55;;
63536;SDS011;49686;51.880;5.632;2023-04-16T07:19:57;24.42;;;12.43;;
63536;SDS011;49686;51.880;5.632;2023-04-16T07:22:25;24.45;;;11.32;;
63536;SDS011;49686;51.880;5.632;2023-04-16T07:24:52;24.73;;;12.20;;
63536;SDS011;49686;51.880;5.632;2023-04-16T07:27:18;26.05;;;11.98;;
63536;SDS011;49686;51.880;5.632;2023-04-16T07:29:45;25.75;;;11.98;;
63536;SDS011;49686;51.880;5.632;2023-04-16T07:32:12;21.88;;;11.00;;
63536;SDS011;49686;51.880;5.632;2023-04-16T07:34:40;26.38;;;12.38;;
63536;SDS011;49686;51.880;5.632;2023-04-16T07:37:07;29.48;;;12.90;;
63536;SDS011;49686;51.880;5.632;2023-04-16T07:39:35;22.77;;;12.45;;
63536;SDS011;49686;51.880;5.632;2023-04-16T07:42:04;33.75;;;13.88;;
63536;SDS011;49686;51.880;5.632;2023-04-16T07:44:31;24.10;;;12.57;;
63536;SDS011;49686;51.880;5.632;2023-04-16T07:46:58;30.63;;;13.63;;
63536;SDS011;49686;51.880;5.632;2023-04-16T07:49:25;32.83;;;14.38;;
63536;SDS011;49686;51.880;5.632;2023-04-16T07:51:52;24.90;;;11.40;;
63536;SDS011;49686;51.880;5.632;2023-04-16T07:54:18;34.28;;;13.85;;
63536;SDS011;49686;51.880;5.632;2023-04-16T07:56:47;29.75;;;13.30;;
63536;SDS011;49686;51.880;5.632;2023-04-16T07:59:13;25.97;;;11.00;;
63536;SDS011;49686;51.880;5.632;2023-04-16T08:01:49;29.02;;;12.57;;
63536;SDS011;49686;51.880;5.632;2023-04-16T08:04:17;30.48;;;14.10;;
63536;SDS011;49686;51.880;5.632;2023-04-16T08:06:45;29.58;;;13.13;;
63536;SDS011;49686;51.880;5.632;2023-04-16T08:09:12;35.28;;;15.48;;
63536;SDS011;49686;51.880;5.632;2023-04-16T08:11:38;35.10;;;13.75;;
63536;SDS011;49686;51.880;5.632;2023-04-16T08:14:06;31.52;;;13.40;;
63536;SDS011;49686;51.880;5.632;2023-04-16T08:16:33;34.78;;;15.20;;
63536;SDS011;49686;51.880;5.632;2023-04-16T08:19:00;30.45;;;14.07;;
63536;SDS011;49686;51.880;5.632;2023-04-16T08:21:27;34.88;;;15.25;;
63536;SDS011;49686;51.880;5.632;2023-04-16T08:23:54;39.42;;;16.45;;
63536;SDS011;49686;51.880;5.632;2023-04-16T08:26:23;30.98;;;14.38;;
63536;SDS011;49686;51.880;5.632;2023-04-16T08:28:50;28.77;;;14.88;;
63536;SDS011;49686;51.880;5.632;2023-04-16T08:31:18;29.83;;;13.75;;
63536;SDS011;49686;51.880;5.632;2023-04-16T08:33:46;29.45;;;14.57;;
63536;SDS011;49686;51.880;5.632;2023-04-16T08:36:13;30.52;;;14.85;;
63536;SDS011;49686;51.880;5.632;2023-04-16T08:38:40;26.40;;;11.88;;
63536;SDS011;49686;51.880;5.632;2023-04-16T08:41:07;33.65;;;15.10;;
63536;SDS011;49686;51.880;5.632;2023-04-16T08:43:38;35.15;;;14.93;;
63536;SDS011;49686;51.880;5.632;2023-04-16T08:46:12;31.92;;;14.52;;
63536;SDS011;49686;51.880;5.632;2023-04-16T08:48:42;26.98;;;13.18;;
63536;SDS011;49686;51.880;5.632;2023-04-16T08:51:16;30.35;;;14.07;;
63536;SDS011;49686;51.880;5.632;2023-04-16T08:53:47;30.95;;;15.57;;
63536;SDS011;49686;51.880;5.632;2023-04-16T08:56:18;29.90;;;14.02;;
63536;SDS011;49686;51.880;5.632;2023-04-16T09:01:13;35.97;;;14.43;;
63536;SDS011;49686;51.880;5.632;2023-04-16T09:03:42;32.85;;;15.35;;
63536;SDS011;49686;51.880;5.632;2023-04-16T09:06:11;28.98;;;15.07;;
63536;SDS011;49686;51.880;5.632;2023-04-16T09:08:42;26.00;;;12.90;;
63536;SDS011;49686;51.880;5.632;2023-04-16T09:11:09;27.97;;;12.63;;
63536;SDS011;49686;51.880;5.632;2023-04-16T09:13:37;35.78;;;16.13;;
63536;SDS011;49686;51.880;5.632;2023-04-16T09:16:04;28.40;;;15.80;;
63536;SDS011;49686;51.880;5.632;2023-04-16T09:18:33;29.60;;;14.82;;
63536;SDS011;49686;51.880;5.632;2023-04-16T09:21:01;25.20;;;12.90;;
63536;SDS011;49686;51.880;5.632;2023-04-16T09:23:28;39.35;;;16.55;;
63536;SDS011;49686;51.880;5.632;2023-04-16T09:25:54;32.60;;;14.98;;
63536;SDS011;49686;51.880;5.632;2023-04-16T09:28:37;31.05;;;14.32;;
63536;SDS011;49686;51.880;5.632;2023-04-16T09:31:08;30.55;;;14.05;;
63536;SDS011;49686;51.880;5.632;2023-04-16T09:33:36;24.85;;;14.48;;
63536;SDS011;49686;51.880;5.632;2023-04-16T09:36:04;28.52;;;14.52;;
63536;SDS011;49686;51.880;5.632;2023-04-16T09:38:44;27.83;;;15.23;;
63536;SDS011;49686;51.880;5.632;2023-04-16T09:41:11;34.80;;;15.18;;
63536;SDS011;49686;51.880;5.632;2023-04-16T09:43:48;27.50;;;14.32;;
63536;SDS011;49686;51.880;5.632;2023-04-16T09:46:19;27.35;;;14.68;;
63536;SDS011;49686;51.880;5.632;2023-04-16T09:48:48;30.35;;;15.88;;
63536;SDS011;49686;51.880;5.632;2023-04-16T09:51:16;32.28;;;15.75;;
63536;SDS011;49686;51.880;5.632;2023-04-16T09:53:43;29.33;;;14.63;;
63536;SDS011;49686;51.880;5.632;2023-04-16T09:56:10;26.60;;;12.95;;
63536;SDS011;49686;51.880;5.632;2023-04-16T09:58:37;24.15;;;13.68;;
63536;SDS011;49686;51.880;5.632;2023-04-16T10:01:06;27.88;;;14.45;;
63536;SDS011;49686;51.880;5.632;2023-04-16T10:03:34;27.90;;;13.02;;
63536;SDS011;49686;51.880;5.632;2023-04-16T10:06:14;24.88;;;13.45;;
63536;SDS011;49686;51.880;5.632;2023-04-16T10:08:43;38.05;;;16.55;;
63536;SDS011;49686;51.880;5.632;2023-04-16T10:11:15;30.23;;;15.52;;
63536;SDS011;49686;51.880;5.632;2023-04-16T10:13:42;32.83;;;16.25;;
63536;SDS011;49686;51.880;5.632;2023-04-16T10:16:10;27.75;;;14.32;;
63536;SDS011;49686;51.880;5.632;2023-04-16T10:18:37;32.25;;;15.98;;
63536;SDS011;49686;51.880;5.632;2023-04-16T10:21:06;27.08;;;14.00;;
63536;SDS011;49686;51.880;5.632;2023-04-16T10:23:33;29.02;;;13.70;;
63536;SDS011;49686;51.880;5.632;2023-04-16T10:26:01;29.80;;;14.98;;
63536;SDS011;49686;51.880;5.632;2023-04-16T10:28:32;33.17;;;15.02;;
63536;SDS011;49686;51.880;5.632;2023-04-16T10:30:59;39.45;;;18.40;;
63536;SDS011;49686;51.880;5.632;2023-04-16T10:33:28;30.40;;;15.35;;
63536;SDS011;49686;51.880;5.632;2023-04-16T10:36:06;30.23;;;14.38;;
63536;SDS011;49686;51.880;5.632;2023-04-16T10:38:34;25.15;;;14.25;;
63536;SDS011;49686;51.880;5.632;2023-04-16T10:41:12;28.70;;;13.93;;
63536;SDS011;49686;51.880;5.632;2023-04-16T10:43:39;28.55;;;13.63;;
63536;SDS011;49686;51.880;5.632;2023-04-16T10:46:17;27.40;;;13.30;;
63536;SDS011;49686;51.880;5.632;2023-04-16T10:48:48;22.92;;;12.85;;
63536;SDS011;49686;51.880;5.632;2023-04-16T10:54:17;31.63;;;14.60;;
63536;SDS011;49686;51.880;5.632;2023-04-16T10:56:48;22.73;;;13.15;;
63536;SDS011;49686;51.880;5.632;2023-04-16T10:59:17;28.50;;;14.32;;
63536;SDS011;49686;51.880;5.632;2023-04-16T11:01:45;23.08;;;13.15;;
63536;SDS011;49686;51.880;5.632;2023-04-16T11:04:25;23.80;;;14.32;;
63536;SDS011;49686;51.880;5.632;2023-04-16T11:06:59;25.13;;;14.18;;
63536;SDS011;49686;51.880;5.632;2023-04-16T11:12:33;23.60;;;13.97;;
63536;SDS011;49686;51.880;5.632;2023-04-16T11:15:01;31.50;;;14.88;;
63536;SDS011;49686;51.880;5.632;2023-04-16T11:17:31;25.42;;;13.60;;
63536;SDS011;49686;51.880;5.632;2023-04-16T11:20:03;23.08;;;12.50;;
63536;SDS011;49686;51.880;5.632;2023-04-16T11:22:45;26.40;;;12.93;;
63536;SDS011;49686;51.880;5.632;2023-04-16T11:25:14;20.85;;;12.85;;
63536;SDS011;49686;51.880;5.632;2023-04-16T11:27:46;20.58;;;11.35;;
63536;SDS011;49686;51.880;5.632;2023-04-16T11:30:13;24.75;;;13.25;;
63536;SDS011;49686;51.880;5.632;2023-04-16T11:32:40;21.27;;;12.07;;
63536;SDS011;49686;51.880;5.632;2023-04-16T11:35:12;20.98;;;12.73;;
63536;SDS011;49686;51.880;5.632;2023-04-16T11:37:40;17.30;;;10.85;;
63536;SDS011;49686;51.880;5.632;2023-04-16T11:40:07;15.32;;;10.45;;
63536;SDS011;49686;51.880;5.632;2023-04-16T11:42:35;16.70;;;9.80;;
63536;SDS011;49686;51.880;5.632;2023-04-16T11:45:05;13.53;;;8.50;;
63536;SDS011;49686;51.880;5.632;2023-04-16T11:47:41;12.82;;;7.72;;
63536;SDS011;49686;51.880;5.632;2023-04-16T11:50:19;16.00;;;9.25;;
63536;SDS011;49686;51.880;5.632;2023-04-16T11:52:47;14.97;;;8.27;;
63536;SDS011;49686;51.880;5.632;2023-04-16T11:55:14;14.93;;;8.20;;
63536;SDS011;49686;51.880;5.632;2023-04-16T11:57:41;17.35;;;9.57;;
63536;SDS011;49686;51.880;5.632;2023-04-16T12:00:10;14.75;;;9.13;;
63536;SDS011;49686;51.880;5.632;2023-04-16T12:02:42;13.02;;;7.85;;
63536;SDS011;49686;51.880;5.632;2023-04-16T12:05:26;14.77;;;8.90;;
63536;SDS011;49686;51.880;5.632;2023-04-16T12:07:55;12.10;;;7.82;;
63536;SDS011;49686;51.880;5.632;2023-04-16T12:10:23;17.13;;;9.55;;
63536;SDS011;49686;51.880;5.632;2023-04-16T12:12:50;14.60;;;9.00;;
63536;SDS011;49686;51.880;5.632;2023-04-16T12:15:18;16.10;;;9.13;;
63536;SDS011;49686;51.880;5.632;2023-04-16T12:17:45;16.98;;;9.70;;
63536;SDS011;49686;51.880;5.632;2023-04-16T12:20:12;19.17;;;10.50;;
63536;SDS011;49686;51.880;5.632;2023-04-16T12:22:42;15.77;;;10.63;;
63536;SDS011;49686;51.880;5.632;2023-04-16T12:25:11;15.63;;;9.40;;
63536;SDS011;49686;51.880;5.632;2023-04-16T12:30:06;15.88;;;9.40;;
63536;SDS011;49686;51.880;5.632;2023-04-16T12:32:35;18.87;;;9.97;;
63536;SDS011;49686;51.880;5.632;2023-04-16T12:35:02;22.88;;;11.73;;
63536;SDS011;49686;51.880;5.632;2023-04-16T12:37:30;17.00;;;10.98;;
63536;SDS011;49686;51.880;5.632;2023-04-16T12:39:57;15.30;;;9.20;;
63536;SDS011;49686;51.880;5.632;2023-04-16T12:42:23;17.80;;;10.63;;
63536;SDS011;49686;51.880;5.632;2023-04-16T12:44:50;20.52;;;10.70;;
63536;SDS011;49686;51.880;5.632;2023-04-16T12:47:17;19.85;;;10.80;;
63536;SDS011;49686;51.880;5.632;2023-04-16T12:49:46;16.15;;;9.43;;
63536;SDS011;49686;51.880;5.632;2023-04-16T12:52:12;15.93;;;9.63;;
63536;SDS011;49686;51.880;5.632;2023-04-16T12:54:39;16.58;;;9.80;;
63536;SDS011;49686;51.880;5.632;2023-04-16T12:57:06;15.70;;;9.55;;
63536;SDS011;49686;51.880;5.632;2023-04-16T12:59:33;17.60;;;9.70;;
63536;SDS011;49686;51.880;5.632;2023-04-16T13:02:00;19.02;;;10.90;;
63536;SDS011;49686;51.880;5.632;2023-04-16T13:04:27;15.60;;;8.93;;
63536;SDS011;49686;51.880;5.632;2023-04-16T13:06:55;13.85;;;8.63;;
63536;SDS011;49686;51.880;5.632;2023-04-16T13:09:22;16.33;;;10.33;;
63536;SDS011;49686;51.880;5.632;2023-04-16T13:11:48;17.05;;;9.50;;
63536;SDS011;49686;51.880;5.632;2023-04-16T13:14:15;14.98;;;9.38;;
63536;SDS011;49686;51.880;5.632;2023-04-16T13:16:42;14.27;;;9.23;;
63536;SDS011;49686;51.880;5.632;2023-04-16T13:19:09;16.40;;;10.00;;
63536;SDS011;49686;51.880;5.632;2023-04-16T13:21:36;17.27;;;10.02;;
63536;SDS011;49686;51.880;5.632;2023-04-16T13:24:05;14.80;;;9.23;;
63536;SDS011;49686;51.880;5.632;2023-04-16T13:26:32;15.38;;;9.82;;
63536;SDS011;49686;51.880;5.632;2023-04-16T13:28:59;19.60;;;11.23;;
63536;SDS011;49686;51.880;5.632;2023-04-16T13:31:25;17.70;;;11.35;;
63536;SDS011;49686;51.880;5.632;2023-04-16T13:33:52;17.02;;;10.13;;
63536;SDS011;49686;51.880;5.632;2023-04-16T13:36:19;14.75;;;10.73;;
63536;SDS011;49686;51.880;5.632;2023-04-16T13:38:46;16.58;;;10.43;;
63536;SDS011;49686;51.880;5.632;2023-04-16T13:41:14;21.80;;;11.05;;
63536;SDS011;49686;51.880;5.632;2023-04-16T13:43:41;22.10;;;11.53;;
63536;SDS011;49686;51.880;5.632;2023-04-16T13:48:15;18.23;;;11.80;;
63536;SDS011;49686;51.880;5.632;2023-04-16T13:50:44;20.90;;;11.73;;
63536;SDS011;49686;51.880;5.632;2023-04-16T13:53:11;20.38;;;11.98;;
63536;SDS011;49686;51.880;5.632;2023-04-16T13:55:38;18.75;;;10.98;;
63536;SDS011;49686;51.880;5.632;2023-04-16T13:58:05;15.07;;;9.25;;
63536;SDS011;49686;51.880;5.632;2023-04-16T14:00:32;18.13;;;10.60;;
63536;SDS011;49686;51.880;5.632;2023-04-16T14:02:58;22.38;;;11.93;;
63536;SDS011;49686;51.880;5.632;2023-04-16T14:05:27;18.35;;;10.45;;
63536;SDS011;49686;51.880;5.632;2023-04-16T14:07:54;20.07;;;11.73;;
63536;SDS011;49686;51.880;5.632;2023-04-16T14:10:20;21.83;;;11.80;;
63536;SDS011;49686;51.880;5.632;2023-04-16T14:12:47;20.35;;;12.30;;
63536;SDS011;49686;51.880;5.632;2023-04-16T14:15:14;18.50;;;11.50;;
63536;SDS011;49686;51.880;5.632;2023-04-16T14:17:41;21.77;;;12.35;;
63536;SDS011;49686;51.880;5.632;2023-04-16T14:20:09;23.45;;;12.68;;
63536;SDS011;49686;51.880;5.632;2023-04-16T14:22:38;20.90;;;12.38;;
63536;SDS011;49686;51.880;5.632;2023-04-16T14:25:05;22.95;;;12.60;;
63536;SDS011;49686;51.880;5.632;2023-04-16T14:27:32;17.55;;;10.65;;
63536;SDS011;49686;51.880;5.632;2023-04-16T14:30:02;19.83;;;12.07;;
63536;SDS011;49686;51.880;5.632;2023-04-16T14:32:29;20.38;;;13.13;;
63536;SDS011;49686;51.880;5.632;2023-04-16T14:34:55;21.73;;;11.52;;
63536;SDS011;49686;51.880;5.632;2023-04-16T14:37:22;22.30;;;12.93;;
63536;SDS011;49686;51.880;5.632;2023-04-16T14:39:50;21.13;;;12.05;;
63536;SDS011;49686;51.880;5.632;2023-04-16T14:42:17;21.15;;;11.43;;
63536;SDS011;49686;51.880;5.632;2023-04-16T14:44:44;23.48;;;14.40;;
63536;SDS011;49686;51.880;5.632;2023-04-16T14:47:11;18.10;;;10.90;;